Time,TemperatureF,DewpointF,PressureIn,WindDirection,WindDirectionDegrees,WindSpeedMPH,WindSpeedGustMPH,Humidity,HourlyPrecipIn,Conditions,Clouds,dailyrainin,SoftwareType,DateUTC
2013-06-03 00:00:00,76.0,76.0,30.01,South,190,14.0,16.0,100,-99.99,,,-99.99,,2013-06-03 04:00:00,
2013-06-03 00:23:00,76.0,76.0,30.01,South,190,14.0,16.0,100,-99.99,,,-99.99,,2013-06-03 04:23:00,
2013-06-03 00:32:00,76.0,76.0,30.01,South,190,14.0,16.0,100,-99.99,,,-99.99,,2013-06-03 04:32:00,
2013-06-03 00:42:00,76.0,76.0,30.01,South,190,14.0,16.0,100,-99.99,,,-99.99,,2013-06-03 04:42:00,
2013-06-03 00:52:00,76.0,76.0,30.01,South,190,14.0,16.0,100,-99.99,,,-99.99,,2013-06-03 04:52:00,
2013-06-03 01:00:00,76.0,76.0,29.99,South,190,13.0,17.0,100,-99.99,,,-99.99,,2013-06-03 05:00:00,
2013-06-03 01:22:00,76.0,76.0,29.99,South,190,13.0,17.0,100,-99.99,,,-99.99,,2013-06-03 05:22:00,
2013-06-03 01:32:00,76.0,76.0,29.99,South,190,13.0,17.0,100,-99.99,,,-99.99,,2013-06-03 05:32:00,
2013-06-03 01:42:00,76.0,76.0,29.99,South,190,13.0,17.0,100,-99.99,,,-99.99,,2013-06-03 05:42:00,
2013-06-03 01:52:00,76.0,76.0,29.99,South,190,13.0,17.0,100,-99.99,,,-99.99,,2013-06-03 05:52:00,
2013-06-03 02:00:00,76.0,76.0,29.98,South,180,15.0,16.0,100,-99.99,,,-99.99,,2013-06-03 06:00:00,
2013-06-03 02:21:00,76.0,76.0,29.98,South,180,15.0,16.0,100,-99.99,,,-99.99,,2013-06-03 06:21:00,
2013-06-03 02:31:00,76.0,76.0,29.98,South,180,15.0,16.0,100,-99.99,,,-99.99,,2013-06-03 06:31:00,
2013-06-03 02:41:00,76.0,76.0,29.98,South,180,15.0,16.0,100,-99.99,,,-99.99,,2013-06-03 06:41:00,
2013-06-03 02:51:00,76.0,76.0,29.98,South,180,15.0,16.0,100,-99.99,,,-99.99,,2013-06-03 06:51:00,
2013-06-03 03:00:00,76.0,76.0,29.97,South,190,15.0,17.0,100,-99.99,,,-99.99,,2013-06-03 07:00:00,
2013-06-03 03:21:00,76.0,76.0,29.97,South,190,15.0,17.0,100,-99.99,,,-99.99,,2013-06-03 07:21:00,
2013-06-03 03:31:00,76.0,76.0,29.97,South,190,15.0,17.0,100,-99.99,,,-99.99,,2013-06-03 07:31:00,
2013-06-03 03:41:00,76.0,76.0,29.97,South,190,15.0,17.0,100,-99.99,,,-99.99,,2013-06-03 07:41:00,
2013-06-03 03:52:00,76.0,76.0,29.97,South,190,15.0,17.0,100,-99.99,,,-99.99,,2013-06-03 07:52:00,
2013-06-03 04:00:00,76.0,76.0,29.96,South,190,11.0,15.0,100,-99.99,,,-99.99,,2013-06-03 08:00:00,
2013-06-03 04:21:00,76.0,76.0,29.96,South,190,11.0,15.0,100,-99.99,,,-99.99,,2013-06-03 08:21:00,
2013-06-03 04:31:00,76.0,76.0,29.96,South,190,11.0,15.0,100,-99.99,,,-99.99,,2013-06-03 08:31:00,
2013-06-03 04:41:00,76.0,76.0,29.96,South,190,11.0,15.0,100,-99.99,,,-99.99,,2013-06-03 08:41:00,
2013-06-03 04:51:00,76.0,76.0,29.96,South,190,11.0,15.0,100,-99.99,,,-99.99,,2013-06-03 08:51:00,
2013-06-03 05:00:00,76.0,76.0,29.96,SSW,200,11.0,15.0,100,-99.99,,,-99.99,,2013-06-03 09:00:00,
2013-06-03 05:21:00,76.0,76.0,29.96,SSW,200,11.0,15.0,100,-99.99,,,-99.99,,2013-06-03 09:21:00,
2013-06-03 05:33:00,76.0,76.0,29.96,SSW,200,11.0,15.0,100,-99.99,,,-99.99,,2013-06-03 09:33:00,
2013-06-03 05:42:00,76.0,76.0,29.96,SSW,200,11.0,15.0,100,-99.99,,,-99.99,,2013-06-03 09:42:00,
2013-06-03 05:52:00,76.0,76.0,29.96,SSW,200,11.0,15.0,100,-99.99,,,-99.99,,2013-06-03 09:52:00,
2013-06-03 06:00:00,76.0,76.0,29.96,SSW,200,10.0,13.0,100,-99.99,,,-99.99,,2013-06-03 10:00:00,
2013-06-03 06:22:00,76.0,76.0,29.96,SSW,200,10.0,13.0,100,-99.99,,,-99.99,,2013-06-03 10:22:00,
2013-06-03 06:32:00,76.0,76.0,29.96,SSW,200,10.0,13.0,100,-99.99,,,-99.99,,2013-06-03 10:32:00,
2013-06-03 06:42:00,76.0,76.0,29.96,SSW,200,10.0,13.0,100,-99.99,,,-99.99,,2013-06-03 10:42:00,
2013-06-03 06:52:00,76.0,76.0,29.96,SSW,200,10.0,13.0,100,-99.99,,,-99.99,,2013-06-03 10:52:00,
2013-06-03 07:00:00,76.0,76.0,29.96,South,190,13.0,15.0,100,-99.99,,,-99.99,,2013-06-03 11:00:00,
2013-06-03 07:22:00,76.0,76.0,29.96,South,190,13.0,15.0,100,-99.99,,,-99.99,,2013-06-03 11:22:00,
2013-06-03 07:32:00,76.0,76.0,29.96,South,190,13.0,15.0,100,-99.99,,,-99.99,,2013-06-03 11:32:00,
2013-06-03 07:41:00,76.0,76.0,29.96,South,190,13.0,15.0,100,-99.99,,,-99.99,,2013-06-03 11:41:00,
2013-06-03 07:52:00,76.0,76.0,29.96,South,190,13.0,15.0,100,-99.99,,,-99.99,,2013-06-03 11:52:00,
2013-06-03 08:00:00,77.0,77.0,29.97,South,190,13.0,16.0,100,-99.99,,,-99.99,,2013-06-03 12:00:00,
2013-06-03 08:21:00,77.0,77.0,29.97,South,190,13.0,16.0,100,-99.99,,,-99.99,,2013-06-03 12:21:00,
2013-06-03 08:32:00,77.0,77.0,29.97,South,190,13.0,16.0,100,-99.99,,,-99.99,,2013-06-03 12:32:00,
2013-06-03 08:42:00,77.0,77.0,29.97,South,190,13.0,16.0,100,-99.99,,,-99.99,,2013-06-03 12:42:00,
2013-06-03 08:52:00,77.0,77.0,29.97,South,190,13.0,16.0,100,-99.99,,,-99.99,,2013-06-03 12:52:00,
2013-06-03 09:00:00,76.0,76.0,29.96,South,180,16.0,18.0,100,-99.99,,,-99.99,,2013-06-03 13:00:00,
2013-06-03 09:21:00,76.0,76.0,29.96,South,180,16.0,18.0,100,-99.99,,,-99.99,,2013-06-03 13:21:00,
2013-06-03 09:32:00,76.0,76.0,29.96,South,180,16.0,18.0,100,-99.99,,,-99.99,,2013-06-03 13:32:00,
2013-06-03 09:42:00,76.0,76.0,29.96,South,180,16.0,18.0,100,-99.99,,,-99.99,,2013-06-03 13:42:00,
2013-06-03 09:52:00,76.0,76.0,29.96,South,180,16.0,18.0,100,-99.99,,,-99.99,,2013-06-03 13:52:00,
2013-06-03 10:00:00,77.0,77.0,29.96,South,180,17.0,20.0,100,-99.99,,,-99.99,,2013-06-03 14:00:00,
2013-06-03 10:21:00,77.0,77.0,29.96,South,180,17.0,20.0,100,-99.99,,,-99.99,,2013-06-03 14:21:00,
2013-06-03 10:31:00,77.0,77.0,29.96,South,180,17.0,20.0,100,-99.99,,,-99.99,,2013-06-03 14:31:00,
2013-06-03 10:41:00,77.0,77.0,29.96,South,180,17.0,20.0,100,-99.99,,,-99.99,,2013-06-03 14:41:00,
2013-06-03 10:52:00,77.0,77.0,29.96,South,180,17.0,20.0,100,-99.99,,,-99.99,,2013-06-03 14:52:00,
2013-06-03 11:00:00,76.0,76.0,29.95,SSW,200,15.0,20.0,100,-99.99,,,-99.99,,2013-06-03 15:00:00,
2013-06-03 11:21:00,76.0,76.0,29.95,SSW,200,15.0,20.0,100,-99.99,,,-99.99,,2013-06-03 15:21:00,
2013-06-03 11:33:00,76.0,76.0,29.95,SSW,200,15.0,20.0,100,-99.99,,,-99.99,,2013-06-03 15:33:00,
2013-06-03 11:42:00,76.0,76.0,29.95,SSW,200,15.0,20.0,100,-99.99,,,-99.99,,2013-06-03 15:42:00,
2013-06-03 11:53:00,76.0,76.0,29.95,SSW,200,15.0,20.0,100,-99.99,,,-99.99,,2013-06-03 15:53:00,
2013-06-03 12:00:00,75.0,75.0,29.94,SSW,200,14.0,17.0,100,-99.99,,,-99.99,,2013-06-03 16:00:00,
2013-06-03 12:22:00,75.0,75.0,29.94,SSW,200,14.0,17.0,100,-99.99,,,-99.99,,2013-06-03 16:22:00,
2013-06-03 12:32:00,75.0,75.0,29.94,SSW,200,14.0,17.0,100,-99.99,,,-99.99,,2013-06-03 16:32:00,
2013-06-03 12:42:00,75.0,75.0,29.94,SSW,200,14.0,17.0,100,-99.99,,,-99.99,,2013-06-03 16:42:00,
2013-06-03 12:53:00,75.0,75.0,29.94,SSW,200,14.0,17.0,100,-99.99,,,-99.99,,2013-06-03 16:53:00,
2013-06-03 13:00:00,74.0,74.0,29.94,SSW,210,9.0,13.0,100,-99.99,,,-99.99,,2013-06-03 17:00:00,
2013-06-03 13:22:00,74.0,74.0,29.94,SSW,210,9.0,13.0,100,-99.99,,,-99.99,,2013-06-03 17:22:00,
2013-06-03 13:33:00,74.0,74.0,29.94,SSW,210,9.0,13.0,100,-99.99,,,-99.99,,2013-06-03 17:33:00,
2013-06-03 13:42:00,74.0,74.0,29.94,SSW,210,9.0,13.0,100,-99.99,,,-99.99,,2013-06-03 17:42:00,
2013-06-03 13:52:00,74.0,74.0,29.94,SSW,210,9.0,13.0,100,-99.99,,,-99.99,,2013-06-03 17:52:00,
2013-06-03 14:00:00,75.0,75.0,29.93,SSW,210,15.0,18.0,100,-99.99,,,-99.99,,2013-06-03 18:00:00,
2013-06-03 14:22:00,75.0,75.0,29.93,SSW,210,15.0,18.0,100,-99.99,,,-99.99,,2013-06-03 18:22:00,
2013-06-03 14:32:00,75.0,75.0,29.93,SSW,210,15.0,18.0,100,-99.99,,,-99.99,,2013-06-03 18:32:00,
2013-06-03 14:42:00,75.0,75.0,29.93,SSW,210,15.0,18.0,100,-99.99,,,-99.99,,2013-06-03 18:42:00,
2013-06-03 14:52:00,75.0,75.0,29.93,SSW,210,15.0,18.0,100,-99.99,,,-99.99,,2013-06-03 18:52:00,
2013-06-03 15:00:00,76.0,76.0,29.91,SSW,200,13.0,15.0,100,-99.99,,,-99.99,,2013-06-03 19:00:00,
2013-06-03 15:22:00,76.0,76.0,29.91,SSW,200,13.0,15.0,100,-99.99,,,-99.99,,2013-06-03 19:22:00,
2013-06-03 15:32:00,76.0,76.0,29.91,SSW,200,13.0,15.0,100,-99.99,,,-99.99,,2013-06-03 19:32:00,
2013-06-03 15:42:00,76.0,76.0,29.91,SSW,200,13.0,15.0,100,-99.99,,,-99.99,,2013-06-03 19:42:00,
2013-06-03 15:52:00,76.0,76.0,29.91,SSW,200,13.0,15.0,100,-99.99,,,-99.99,,2013-06-03 19:52:00,
2013-06-03 16:00:00,71.0,71.0,29.92,WSW,240,15.0,17.0,100,-99.99,,,-99.99,,2013-06-03 20:00:00,
2013-06-03 16:21:00,71.0,71.0,29.92,WSW,240,15.0,17.0,100,-99.99,,,-99.99,,2013-06-03 20:21:00,
2013-06-03 16:32:00,71.0,71.0,29.92,WSW,240,15.0,17.0,100,-99.99,,,-99.99,,2013-06-03 20:32:00,
2013-06-03 16:42:00,71.0,71.0,29.92,WSW,240,15.0,17.0,100,-99.99,,,-99.99,,2013-06-03 20:42:00,
2013-06-03 16:52:00,71.0,71.0,29.92,WSW,240,15.0,17.0,100,-99.99,,,-99.99,,2013-06-03 20:52:00,
2013-06-03 17:00:00,70.0,70.0,29.91,WSW,250,13.0,15.0,100,-99.99,,,-99.99,,2013-06-03 21:00:00,
2013-06-03 17:21:00,70.0,70.0,29.91,WSW,250,13.0,15.0,100,-99.99,,,-99.99,,2013-06-03 21:21:00,
2013-06-03 17:32:00,70.0,70.0,29.91,WSW,250,13.0,15.0,100,-99.99,,,-99.99,,2013-06-03 21:32:00,
2013-06-03 17:43:00,70.0,70.0,29.91,WSW,250,13.0,15.0,100,-99.99,,,-99.99,,2013-06-03 21:43:00,
2013-06-03 17:52:00,70.0,70.0,29.91,WSW,250,13.0,15.0,100,-99.99,,,-99.99,,2013-06-03 21:52:00,
2013-06-03 18:00:00,71.0,71.0,29.90,South,190,11.0,13.0,100,-99.99,,,-99.99,,2013-06-03 22:00:00,
2013-06-03 18:22:00,71.0,71.0,29.90,South,190,11.0,13.0,100,-99.99,,,-99.99,,2013-06-03 22:22:00,
2013-06-03 18:32:00,71.0,71.0,29.90,South,190,11.0,13.0,100,-99.99,,,-99.99,,2013-06-03 22:32:00,
2013-06-03 18:41:00,71.0,71.0,29.90,South,190,11.0,13.0,100,-99.99,,,-99.99,,2013-06-03 22:41:00,
2013-06-03 18:52:00,71.0,71.0,29.90,South,190,11.0,13.0,100,-99.99,,,-99.99,,2013-06-03 22:52:00,
2013-06-03 19:00:00,72.0,72.0,29.89,South,180,10.0,11.0,100,-99.99,,,-99.99,,2013-06-03 23:00:00,
2013-06-03 19:21:00,72.0,72.0,29.89,South,180,10.0,11.0,100,-99.99,,,-99.99,,2013-06-03 23:21:00,
2013-06-03 19:31:00,72.0,72.0,29.89,South,180,10.0,11.0,100,-99.99,,,-99.99,,2013-06-03 23:31:00,
2013-06-03 19:42:00,72.0,72.0,29.89,South,180,10.0,11.0,100,-99.99,,,-99.99,,2013-06-03 23:42:00,
2013-06-03 19:52:00,72.0,72.0,29.89,South,180,10.0,11.0,100,-99.99,,,-99.99,,2013-06-03 23:52:00,
2013-06-03 20:00:00,73.0,73.0,29.88,SSE,160,11.0,13.0,100,-99.99,,,-99.99,,2013-06-04 00:00:00,
2013-06-03 20:32:00,73.0,73.0,29.88,SSE,160,11.0,13.0,100,-99.99,,,-99.99,,2013-06-04 00:32:00,
2013-06-03 20:42:00,73.0,73.0,29.88,SSE,160,11.0,13.0,100,-99.99,,,-99.99,,2013-06-04 00:42:00,
2013-06-03 20:52:00,73.0,73.0,29.88,SSE,160,11.0,13.0,100,-99.99,,,-99.99,,2013-06-04 00:52:00,
2013-06-03 21:00:00,74.0,74.0,29.91,SSE,160,13.0,14.0,99,-99.99,,,-99.99,,2013-06-04 01:00:00,
2013-06-03 21:21:00,74.0,74.0,29.91,SSE,160,13.0,14.0,99,-99.99,,,-99.99,,2013-06-04 01:21:00,
2013-06-03 21:32:00,74.0,74.0,29.91,SSE,160,13.0,14.0,99,-99.99,,,-99.99,,2013-06-04 01:32:00,
2013-06-03 21:42:00,74.0,74.0,29.91,SSE,160,13.0,14.0,99,-99.99,,,-99.99,,2013-06-04 01:42:00,
2013-06-03 21:52:00,74.0,74.0,29.91,SSE,160,13.0,14.0,99,-99.99,,,-99.99,,2013-06-04 01:52:00,
2013-06-03 22:00:00,74.0,74.0,29.96,South,190,10.0,13.0,100,-99.99,,,-99.99,,2013-06-04 02:00:00,
2013-06-03 22:21:00,74.0,74.0,29.96,South,190,10.0,13.0,100,-99.99,,,-99.99,,2013-06-04 02:21:00,
2013-06-03 22:31:00,74.0,74.0,29.96,South,190,10.0,13.0,100,-99.99,,,-99.99,,2013-06-04 02:31:00,
2013-06-03 22:42:00,74.0,74.0,29.96,South,190,10.0,13.0,100,-99.99,,,-99.99,,2013-06-04 02:42:00,
2013-06-03 22:52:00,74.0,74.0,29.96,South,190,10.0,13.0,100,-99.99,,,-99.99,,2013-06-04 02:52:00,
2013-06-03 23:00:00,74.0,74.0,29.93,South,170,15.0,17.0,100,-99.99,,,-99.99,,2013-06-04 03:00:00,
2013-06-03 23:21:00,74.0,74.0,29.93,South,170,15.0,17.0,100,-99.99,,,-99.99,,2013-06-04 03:21:00,
2013-06-03 23:32:00,74.0,74.0,29.93,South,170,15.0,17.0,100,-99.99,,,-99.99,,2013-06-04 03:32:00,
2013-06-03 23:43:00,74.0,74.0,29.93,South,170,15.0,17.0,100,-99.99,,,-99.99,,2013-06-04 03:43:00,
2013-06-03 23:53:00,74.0,74.0,29.93,South,170,15.0,17.0,100,-99.99,,,-99.99,,2013-06-04 03:53:00,